• Join FlightAware (Why Join?)
  • Login
  • US Flag 
11:43PM EDT


 

Airport Tracker/Info


-or-


 

Live Flight TrackerFlight Track Log ✈ SWA624 ✈ 31-Jul-2013 ✈ KECP - KBWI

Flight Track Log - Related Links

Times and Time Zones

All times are in EDT time to prevent confusion due to time zone crossing. See the SWA624 flight status page for this flight to view local times or setup timezone preferences in your user account.

Time Position Orientation Groundspeed Altitude Reporting Facility
EDT Latitude Longitude Course Direction KTS MPH feet Rate Location/Type
02:32PM 30.4228 -85.5425 48° Northeast 311 358 13,100  Level Jacksonville Center
02:33PM 30.5111 -85.5014 22° Northeast 364 419 15,800 2,880 Climbing Jacksonville Center
02:34PM 30.5797 -85.4164 47° Northeast 381 438 18,900 2,880 Climbing Jacksonville Center
02:35PM 30.8263 -85.1878 48° Northeast  Level FlightAware Approximate
02:35PM 30.6381 -85.3167 56° Northeast 420 483 21,600  Level Jacksonville Center
02:36PM 30.8930 -85.1005 48° Northeast  Level FlightAware Approximate
02:37PM 30.9596 -85.0130 48° Northeast  Level FlightAware Approximate
02:37PM 30.8328 -85.1717 33° Northeast 410 472 26,200  Level Jacksonville Center
02:38PM 30.9403 -85.1136 25° Northeast 410 472 28,500 2,160 Climbing Jacksonville Center
02:39PM 31.0481 -85.0433 29° Northeast 422 486 30,600 1,920 Climbing Jacksonville Center
02:40PM 31.1514 -84.9706 31° Northeast 427 491 32,400 1,560 Climbing Jacksonville Center
02:41PM 31.2425 -84.9044 32° Northeast 427 491 33,800 1,500 Climbing Jacksonville Center
02:42PM 31.3481 -84.8264 32° Northeast 434 499 35,400 1,800 Climbing Jacksonville Center
02:43PM 31.4350 -84.7236 45° Northeast 440 506 37,500 1,860 Climbing Jacksonville Center
02:44PM 31.5200 -84.6253 45° Northeast 428 493 39,200 1,320 Climbing Jacksonville Center
02:46PM 31.6519 -84.4683 45° Northeast 422 486 41,000 660 Climbing Atlanta Center
02:47PM 31.7275 -84.3611 50° Northeast 422 486 41,000  Level Atlanta Center
02:48PM 31.8028 -84.2489 52° Northeast 427 491 41,000  Level Atlanta Center
02:49PM 31.8758 -84.1392 52° Northeast 427 491 41,000  Level Atlanta Center
02:50PM 31.9533 -84.0292 50° Northeast 427 491 41,000  Level Atlanta Center
02:51PM 32.0283 -83.9139 52° Northeast 432 497 41,000  Level Atlanta Center
02:52PM 32.1033 -83.8011 52° Northeast 437 503 41,000  Level Atlanta Center
02:53PM 32.1761 -83.6881 53° Northeast 442 509 41,000  Level Atlanta Center
02:54PM 32.2508 -83.5722 53° Northeast 442 509 41,000  Level Atlanta Center
02:55PM 32.3275 -83.4564 52° Northeast 442 509 41,000  Level Atlanta Center
02:56PM 32.4042 -83.3425 51° Northeast 442 509 41,000  Level Atlanta Center
02:57PM 32.4869 -83.2139 53° Northeast 442 509 41,000  Level Atlanta Center
02:58PM 32.5633 -83.0972 52° Northeast 442 509 41,000  Level Atlanta Center
02:59PM 32.6394 -82.9781 53° Northeast 442 509 41,000  Level Atlanta Center
03:00PM 32.7158 -82.8858 45° Northeast 436 502 41,000  Level Atlanta Center
03:02PM 32.9428 -82.6425 42° Northeast 448 516 41,000  Level Jacksonville Center
03:03PM 33.0367 -82.5358 44° Northeast 453 521 41,000  Level Jacksonville Center
03:04PM 33.1322 -82.4311 43° Northeast 453 521 41,000  Level Jacksonville Center
03:05PM 33.2236 -82.3239 44° Northeast 453 521 41,000  Level Jacksonville Center
03:06PM 33.3233 -82.2014 46° Northeast 453 521 41,000  Level Jacksonville Center
03:07PM 33.4122 -82.0914 46° Northeast 458 527 41,000  Level Jacksonville Center
03:08PM 33.4992 -81.9761 48° Northeast 458 527 41,000  Level Jacksonville Center
03:09PM 33.5817 -81.8531 51° Northeast 458 527 41,000  Level Jacksonville Center
03:10PM 33.6642 -81.7297 51° Northeast 463 533 41,000  Level Jacksonville Center
03:11PM 33.7381 -81.6039 55° Northeast 463 533 41,000  Level Jacksonville Center
03:12PM 33.8158 -81.4728 54° Northeast 463 533 41,000  Level Jacksonville Center
03:13PM 33.8917 -81.3489 54° Northeast 463 533 41,000  Level Jacksonville Center
03:14PM 33.9694 -81.2222 53° Northeast 463 533 41,000  Level Jacksonville Center
03:15PM 34.0469 -81.0956 54° Northeast 463 533 41,000  Level Jacksonville Center
03:16PM 34.1222 -80.9736 53° Northeast 452 520 41,000  Level Jacksonville Center
03:17PM 34.1975 -80.8464 54° Northeast 452 520 41,000  Level Jacksonville Center
03:18PM 34.2767 -80.7164 54° Northeast 464 534 41,000  Level Jacksonville Center
03:19PM 34.3517 -80.5914 54° Northeast 464 534 41,000  Level Jacksonville Center
03:20PM 34.4283 -80.4608 55° Northeast 464 534 41,000  Level Jacksonville Center
03:21PM 34.5117 -80.3400 50° Northeast 464 534 41,000  Level Jacksonville Center
03:23PM 34.6864 -80.1358 44° Northeast 456 525 41,000  Level Washington Center
03:24PM 34.7931 -80.0203 42° Northeast 463 533 41,000  Level Washington Center
03:25PM 34.8908 -79.9117 42° Northeast 472 543 41,000  Level Washington Center
03:26PM 34.9864 -79.8028 43° Northeast 461 531 41,000  Level Washington Center
03:27PM 35.0819 -79.6961 42° Northeast 461 531 41,000  Level Washington Center
03:28PM 35.1775 -79.5892 42° Northeast 461 531 41,000  Level Washington Center
03:29PM 35.2728 -79.4794 43° Northeast 467 537 41,000  Level Washington Center
03:30PM 35.3725 -79.3669 43° Northeast 467 537 41,000  Level Washington Center
03:31PM 35.4656 -79.2592 43° Northeast 472 543 41,000  Level Washington Center
03:32PM 35.5414 -79.1708 43° Northeast 477 549 41,000 -540 Level Washington Center
03:33PM 35.6558 -79.0406 43° Northeast 462 532 40,000 -900 Descending Washington Center
03:34PM 35.7419 -78.9444 42° Northeast 462 532 39,200 -960 Descending Washington Center
03:35PM 35.8369 -78.8306 44° Northeast 462 532 38,200 -960 Descending Washington Center
03:36PM 35.9375 -78.7294 39° Northeast 462 532 37,300 -600 Descending Washington Center
03:37PM 36.0444 -78.6361 35° Northeast 462 532 37,000 -1,020 Descending Washington Center
03:38PM 36.1511 -78.5425 35° Northeast 462 532 35,300 -2,160 Descending Washington Center
03:39PM 36.2533 -78.4536 35° Northeast 462 532 32,800 -2,160 Descending Washington Center
03:40PM 36.3594 -78.3775 30° Northeast 451 519 31,000 -900 Descending Washington Center
03:41PM 36.4792 -78.3378 15° North 432 497 31,000  Level Washington Center
03:42PM 36.6011 -78.2981 15° North 437 503 31,000 -420 Level Washington Center
03:43PM 36.7169 -78.2478 19° North 443 510 30,200 -960 Descending Washington Center
03:44PM 36.8350 -78.2025 17° North 443 510 29,200 -1,080 Descending Washington Center
03:45PM 36.9633 -78.1497 18° North 438 504 28,100 -1,080 Descending Washington Center
03:46PM 37.0644 -78.1089 18° North 430 495 27,100 -1,020 Descending Washington Center
03:47PM 37.1719 -78.0472 25° Northeast 430 495 26,100 -600 Descending Washington Center
03:48PM 37.2775 -77.9828 26° Northeast 419 482 26,000 -60 Descending Washington Center
03:49PM 37.3833 -77.9128 28° Northeast 419 482 26,000 -600 Level Washington Center
03:50PM 37.4867 -77.8481 26° Northeast 419 482 24,900 -1,200 Descending Washington Center
03:51PM 37.5861 -77.7800 28° Northeast 413 475 23,700 -1,020 Descending Washington Center
03:52PM 37.6792 -77.7042 33° Northeast 408 470 23,000 -360 Descending Washington Center
03:53PM 37.7681 -77.6331 32° Northeast 389 448 23,000  Level Washington Center
03:54PM 37.8589 -77.5592 33° Northeast 384 442 23,000  Level Washington Center
03:55PM 37.9497 -77.4878 32° Northeast 384 442 23,000 -240 Level Washington Center
03:56PM 38.0489 -77.4086 32° Northeast 384 442 22,600 -1,200 Descending Washington Center
03:57PM 38.1356 -77.3367 33° Northeast 379 436 20,700 -1,920 Descending Washington Center
03:58PM 38.2200 -77.2672 33° Northeast 379 436 18,800 -1,920 Descending Washington Center
03:59PM 38.3042 -77.2006 32° Northeast 374 430 17,000 -1,980 Descending Washington Center
04:00PM 38.3906 -77.1308 32° Northeast 369 425 15,000 -1,680 Descending Washington Center
04:01PM 38.4583 -77.0472 44° Northeast 355 409 13,700 -1,500 Descending Washington Center
04:02PM 38.5239 -76.9664 44° Northeast 337 388 12,000 -1,140 Descending Washington Center
04:03PM 38.5894 -76.8878 43° Northeast 323 372 11,500 -960 Descending Washington Center
04:04PM 38.6528 -76.8119 43° Northeast 317 365 10,200 -1,260 Descending Washington Center
04:05PM 38.7036 -76.7461 45° Northeast 293 337 9,000 -1,200 Descending Washington Center
04:07PM 38.7667 -76.6000 61° Northeast 270 311 7,100 -1,320 Descending Potomac TRACON
04:08PM 38.8167 -76.5333 46° Northeast 275 316 5,600 -1,500 Descending Potomac TRACON
04:09PM 38.8833 -76.5500 349° North 264 304 4,200 -960 Descending Potomac TRACON
04:10PM 38.9500 -76.5500 360° North 232 267 3,700 -780 Descending Potomac TRACON
04:11PM 39.0167 -76.5667 349° North 227 261 2,700 -900 Descending Potomac TRACON
04:12PM 39.0833 -76.5833 349° North 220 253 1,900 -780 Descending Potomac TRACON
04:13PM 39.1167 -76.6167 322° Northwest 171 197 1,300 -840 Descending Potomac TRACON
04:14PM 39.1500 -76.6500 322° Northwest 146 168 400 -900 Descending Potomac TRACON
04:15PM 39.1667 -76.6667 339° North  Level FlightAware Approximate
04:22PM 39.1754 -76.6683 339° North  Level Estimated
04:23PM 39.1754 -76.6683 339° North  Level Estimated
04:24PM 39.1754 -76.6683 339° North  Level Estimated
04:25PM 39.1754 -76.6683 339° North  Level Estimated
04:26PM 39.1754 -76.6683 339° North  Level Estimated